Buckley Air Force Base
KBKF : now visible

Airfield :











YOU CAN JOIN US ON...

 
LOGIN :

Register | Disclaimer

   EN    FR    IT 

 









Legend :    VFR   Marginal VFR   IFR   Intensive IFR   Very Intensive IFR
Visi :
Ceiling :
>= 8 km
>= 3000ft
5 to 8 km
1000 to 3000 ft
1500m to 5 km
500 to 1000 ft
800 to 1500m
200 to 500 ft
< 800m
< 200 ft
Symbols :   Thunderstorms  Fog  Heavy snow  Heavy precipitations  Wind > 20 kt






- Airport Elevation : 5662 ft


KBKF - Buckley Air Force Base

CURRENT METAR :
  • 212258Z 27012G21KT 10SM FEW090 BKN130 BKN190 15/M18 A2977 RMK AO2A SLP039 T01481178

EXPIRED METARs :
  • 212158Z 34007KT 10SM FEW090 SCT130 BKN220 16/M09 A2974 RMK AO2A SLP032 T01591091
  • 212058Z COR 35018G35KT 10SM FEW090 FEW140 BKN220 18/M17 A2971 RMK AO2A SLP018 T01791169 57036 COR 2103
  • 211958Z 25013G21KT 10SM FEW090 FEW140 SCT220 18/M17 A2974 RMK AO2A PK WND 24026/31 SLP029 T01821167

TAF AMD TAF KBKF
Valid from the 21 at 22:00 until the 22 at 23:00 UTC


212215Z 2122/2223 18010G25KT 9999 FEW090 FEW140 SCT220 QNH2988INS
BECMG 2200/2201 VRB06KT 9999 FEW220 QNH2978INS
BECMG 2209/2210 01009KT 9999 BKN030 OVC050 620303 QNH2998INS
BECMG 2217/2218 VRB06KT 9999 SCT060 QNH3012INS TX13/2122Z TN00/2210Z
KZDV FIR / North America



MET'MAP, your aeronautical weather chart ! - Copyright ORBIFLY December 2007 - Disclaimer

ORBIFLY MET'MAP TEAM :

Programming & Development : Alexandra Zaïnal
Original concept : Baudouin d'Aumeries
Technical & hardware support : Manuel Goepfert
Assistance : Marc-Olivier Méhu




SOURCES & CREDITS :

   NOAA       Earth
Advisory